Time;durP1;ratioP1;P1;durP2;ratioP2;P2;SDS_P1;SDS_P2;PMS_P1;PMS_P2;Temp;Humidity;BMP_temperature;BMP_pressure;BME280_temperature;BME280_humidity;BME280_pressure;Samples;Min_cycle;Max_cycle;Signal;HPM_P1;HPM_P2
2021/06/27 00:03:24;;;;;;;13.37;6.00;;;;;;;17.90;100.00;99176.97;10458399;28;20238;-82
2021/06/27 00:08:44;;;;;;;9.43;6.33;;;;;;;17.77;100.00;99172.63;10459527;28;20537;-81
2021/06/27 00:14:04;;;;;;;6.30;5.70;;;;;;;17.73;100.00;99164.41;10458856;28;20231;-82
2021/06/27 00:19:24;;;;;;;10.07;7.00;;;;;;;17.62;100.00;99172.31;10457217;28;20553;-81
2021/06/27 00:24:44;;;;;;;11.00;6.70;;;;;;;17.54;100.00;99175.75;10459940;28;20167;-82
2021/06/27 00:30:03;;;;;;;10.30;6.90;;;;;;;17.42;100.00;99170.94;10459902;28;20168;-82
2021/06/27 00:35:24;;;;;;;10.30;7.03;;;;;;;17.36;100.00;99167.16;10457827;28;20199;-82
2021/06/27 00:40:44;;;;;;;7.17;5.47;;;;;;;17.28;100.00;99176.94;10460305;28;20183;-83
2021/06/27 00:46:03;;;;;;;9.53;6.63;;;;;;;17.24;100.00;99167.09;10458631;28;20183;-81
2021/06/27 00:51:22;;;;;;;8.07;6.67;;;;;;;17.20;100.00;99166.41;10457337;28;20179;-82
2021/06/27 00:56:44;;;;;;;8.77;6.00;;;;;;;17.12;100.00;99165.81;10457130;28;20199;-84
2021/06/27 01:02:04;;;;;;;7.50;6.37;;;;;;;17.10;100.00;99173.84;10455887;28;20258;-82
2021/06/27 01:07:22;;;;;;;9.70;6.03;;;;;;;17.04;100.00;99181.16;10458793;28;20183;-82
2021/06/27 01:12:43;;;;;;;8.20;5.70;;;;;;;17.01;100.00;99187.59;10458485;28;20618;-82
2021/06/27 01:18:03;;;;;;;8.60;6.60;;;;;;;16.88;100.00;99183.97;10455758;28;20206;-82
2021/06/27 01:23:22;;;;;;;7.70;5.83;;;;;;;16.81;100.00;99180.63;10457320;28;20179;-82
2021/06/27 01:28:41;;;;;;;7.00;5.43;;;;;;;16.72;100.00;99174.16;10458330;28;20180;-82
2021/06/27 01:34:01;;;;;;;10.37;7.10;;;;;;;16.68;100.00;99177.00;10455652;28;20204;-82
2021/06/27 01:39:20;;;;;;;11.27;5.90;;;;;;;16.64;100.00;99178.34;10456887;28;20533;-82
2021/06/27 01:44:39;;;;;;;8.80;6.07;;;;;;;16.60;100.00;99178.41;10455915;28;20179;-82
2021/06/27 01:49:58;;;;;;;21.30;6.47;;;;;;;16.50;100.00;99182.25;10454268;28;20191;-83
2021/06/27 01:55:17;;;;;;;8.67;6.13;;;;;;;16.45;100.00;99182.00;10455988;28;20207;-82
2021/06/27 02:00:37;;;;;;;8.10;6.20;;;;;;;16.41;100.00;99178.53;10455413;28;20175;-82
2021/06/27 02:05:56;;;;;;;8.37;6.97;;;;;;;16.38;100.00;99177.41;10455117;28;20167;-82
2021/06/27 02:11:18;;;;;;;13.50;6.10;;;;;;;16.32;100.00;99189.44;10455043;28;20175;-81
2021/06/27 02:16:37;;;;;;;8.30;5.90;;;;;;;16.33;100.00;99188.25;10453753;28;20234;-82
2021/06/27 02:21:56;;;;;;;21.73;7.17;;;;;;;16.25;100.00;99178.50;10456042;28;20179;-82
2021/06/27 02:27:15;;;;;;;7.07;5.60;;;;;;;16.21;100.00;99188.94;10454171;28;20179;-82
2021/06/27 02:32:35;;;;;;;13.10;7.20;;;;;;;16.09;100.00;99192.38;10454639;28;20175;-82
2021/06/27 02:37:54;;;;;;;12.80;6.20;;;;;;;16.08;100.00;99188.03;10453708;28;20211;-81
2021/06/27 02:43:14;;;;;;;8.83;6.13;;;;;;;16.08;100.00;99190.81;10455553;28;20263;-82
2021/06/27 02:48:34;;;;;;;14.20;6.60;;;;;;;16.00;100.00;99186.66;10452641;28;20246;-82
2021/06/27 02:53:53;;;;;;;9.70;6.20;;;;;;;15.95;100.00;99192.72;10454234;28;20297;-82
2021/06/27 02:59:12;;;;;;;10.50;7.23;;;;;;;15.97;100.00;99198.63;10454338;28;20600;-82
2021/06/27 03:04:31;;;;;;;12.20;7.47;;;;;;;15.82;100.00;99194.63;10453651;28;20183;-81
2021/06/27 03:09:50;;;;;;;11.43;7.57;;;;;;;15.79;100.00;99197.47;10454042;28;20685;-82
2021/06/27 03:15:11;;;;;;;5.87;5.20;;;;;;;15.76;100.00;99193.56;10453378;28;20690;-82
2021/06/27 03:20:30;;;;;;;8.97;6.60;;;;;;;15.80;100.00;99188.72;10453341;28;20289;-81
2021/06/27 03:25:49;;;;;;;9.73;6.50;;;;;;;15.76;100.00;99179.69;10462181;28;20561;-81
2021/06/27 03:31:08;;;;;;;10.13;6.77;;;;;;;15.70;100.00;99169.56;10462064;28;20168;-81
2021/06/27 03:36:27;;;;;;;10.80;7.00;;;;;;;15.67;100.00;99179.50;10460326;28;20286;-82
2021/06/27 03:41:50;;;;;;;7.93;6.00;;;;;;;15.71;100.00;99182.97;10461707;28;20175;-82
2021/06/27 03:47:09;;;;;;;11.73;7.57;;;;;;;15.81;100.00;99167.28;10458975;28;20281;-82
2021/06/27 03:52:28;;;;;;;17.20;8.40;;;;;;;15.89;100.00;99152.84;10461429;28;20940;-83
2021/06/27 03:57:48;;;;;;;10.90;7.10;;;;;;;16.07;100.00;99159.50;10459609;28;20211;-83
2021/06/27 04:03:07;;;;;;;10.27;7.30;;;;;;;16.25;100.00;99159.88;10459610;28;20179;-82
2021/06/27 04:08:26;;;;;;;9.10;6.37;;;;;;;16.42;100.00;99160.66;10460750;28;20171;-84
2021/06/27 04:13:45;;;;;;;12.00;7.27;;;;;;;16.67;100.00;99166.34;10459018;28;20321;-83
2021/06/27 04:19:04;;;;;;;12.00;7.07;;;;;;;16.95;100.00;99158.00;10457654;28;20568;-83
2021/06/27 04:24:23;;;;;;;9.50;6.53;;;;;;;17.13;100.00;99145.16;10458866;28;20183;-83
2021/06/27 04:29:42;;;;;;;16.03;8.93;;;;;;;17.32;100.00;99143.47;10458846;28;20168;-83
2021/06/27 04:35:03;;;;;;;9.70;8.20;;;;;;;17.54;100.00;99147.91;10456916;28;20206;-81
2021/06/27 04:40:21;;;;;;;12.60;7.70;;;;;;;17.71;100.00;99132.69;10459328;28;20183;-81
2021/06/27 04:45:42;;;;;;;13.80;8.60;;;;;;;17.78;100.00;99146.38;10458952;28;20641;-81
2021/06/27 04:51:01;;;;;;;14.13;7.13;;;;;;;17.87;100.00;99152.06;10429552;28;20196;-80
2021/06/27 04:56:20;;;;;;;9.00;6.70;;;;;;;17.80;100.00;99138.38;10444102;28;20208;-80
2021/06/27 05:01:39;;;;;;;12.83;7.97;;;;;;;17.94;100.00;99121.19;10415076;28;20188;-80
2021/06/27 05:06:58;;;;;;;10.20;8.10;;;;;;;18.03;100.00;99112.94;10416237;28;20180;-81
2021/06/27 05:12:17;;;;;;;18.23;8.23;;;;;;;18.15;100.00;99109.38;10427373;28;20192;-81
2021/06/27 05:17:36;;;;;;;9.93;7.07;;;;;;;18.36;100.00;99119.81;10450243;28;20302;-80
2021/06/27 05:22:55;;;;;;;10.23;7.50;;;;;;;18.50;100.00;99115.31;10434638;28;20183;-81
2021/06/27 05:28:14;;;;;;;20.20;8.27;;;;;;;18.69;100.00;99111.44;10456738;28;20221;-81
2021/06/27 05:33:33;;;;;;;14.20;7.37;;;;;;;18.80;100.00;99111.06;10454640;28;20195;-82
2021/06/27 05:38:51;;;;;;;10.17;7.53;;;;;;;18.92;100.00;99133.31;10456156;28;20179;-82
2021/06/27 05:44:10;;;;;;;9.23;6.23;;;;;;;19.19;100.00;99136.31;10456725;28;20183;-82
2021/06/27 05:49:29;;;;;;;11.33;6.77;;;;;;;19.45;100.00;99120.97;10456042;28;20179;-81
2021/06/27 05:54:48;;;;;;;11.00;6.33;;;;;;;19.58;100.00;99121.66;10456726;28;20203;-81
2021/06/27 06:00:08;;;;;;;12.03;6.90;;;;;;;19.87;100.00;99141.66;10455423;28;20176;-81
2021/06/27 06:05:27;;;;;;;9.60;7.60;;;;;;;20.31;100.00;99144.59;10454745;28;20171;-81
2021/06/27 06:10:45;;;;;;;9.83;7.03;;;;;;;20.74;100.00;99158.31;10455548;28;20555;-81
2021/06/27 06:16:06;;;;;;;11.63;7.23;;;;;;;20.88;100.00;99152.91;10455312;28;20227;-81
2021/06/27 06:21:25;;;;;;;8.77;7.23;;;;;;;20.93;100.00;99166.28;10454926;28;20207;-81
2021/06/27 06:26:47;;;;;;;7.07;6.20;;;;;;;21.23;100.00;99158.94;10454635;28;20225;-82
2021/06/27 06:32:07;;;;;;;8.20;6.67;;;;;;;21.39;100.00;99153.78;10453135;28;20187;-81
2021/06/27 06:37:26;;;;;;;9.30;6.90;;;;;;;21.87;100.00;99139.50;10453940;28;20211;-81
2021/06/27 06:42:45;;;;;;;8.43;6.70;;;;;;;22.01;100.00;99129.66;10455604;28;20175;-83
2021/06/27 06:48:04;;;;;;;9.73;7.60;;;;;;;22.19;100.00;99116.31;10454233;28;20203;-82
2021/06/27 06:53:23;;;;;;;8.50;6.93;;;;;;;22.28;100.00;99119.06;10454375;28;20549;-82
2021/06/27 06:58:42;;;;;;;7.10;5.77;;;;;;;22.64;100.00;99138.44;10459144;28;20650;-82
2021/06/27 07:04:01;;;;;;;7.10;6.40;;;;;;;22.82;100.00;99129.91;10460867;28;20195;-83
2021/06/27 07:09:20;;;;;;;9.13;7.10;;;;;;;23.39;100.00;99118.78;10461845;28;20179;-82
2021/06/27 07:14:39;;;;;;;7.67;6.60;;;;;;;23.69;89.60;99123.09;10461576;28;20219;-83
2021/06/27 07:19:58;;;;;;;7.10;6.50;;;;;;;23.93;83.62;99126.56;10461510;28;20211;-85
2021/06/27 07:25:17;;;;;;;6.53;5.83;;;;;;;24.10;65.93;99112.78;10463878;28;20606;-82
2021/06/27 07:30:36;;;;;;;6.07;5.47;;;;;;;24.76;63.44;99103.22;10462769;28;20262;-84
2021/06/27 07:35:55;;;;;;;7.20;6.50;;;;;;;25.51;62.48;99108.13;10459863;28;20313;-84
2021/06/27 07:41:14;;;;;;;7.50;5.80;;;;;;;25.48;58.73;99095.03;10461213;28;20192;-84
2021/06/27 07:46:33;;;;;;;7.63;6.10;;;;;;;25.20;59.41;99102.44;10458753;28;20650;-84
2021/06/27 07:51:52;;;;;;;6.27;5.40;;;;;;;25.83;59.85;99109.69;10455000;28;20179;-83
2021/06/27 07:57:11;;;;;;;7.93;5.10;;;;;;;26.19;56.76;99094.81;10461781;28;20203;-82
2021/06/27 08:02:30;;;;;;;6.33;5.83;;;;;;;25.90;57.40;99106.41;10464970;28;20179;-83
2021/06/27 08:07:49;;;;;;;6.03;5.53;;;;;;;26.31;58.71;99102.06;10461376;28;20176;-82
2021/06/27 08:13:08;;;;;;;6.70;5.60;;;;;;;26.55;57.04;99097.59;10461813;28;20231;-83
2021/06/27 08:18:28;;;;;;;7.53;6.27;;;;;;;26.16;57.16;99110.69;10459814;28;20214;-84
2021/06/27 08:23:47;;;;;;;6.17;5.67;;;;;;;27.10;56.70;99109.13;10463410;28;20634;-83
2021/06/27 08:29:06;;;;;;;6.23;5.73;;;;;;;27.70;55.07;99106.38;10462091;28;20266;-83
2021/06/27 08:34:24;;;;;;;6.20;5.70;;;;;;;28.29;52.80;99090.66;10460239;28;20199;-83
2021/06/27 08:39:43;;;;;;;7.00;6.40;;;;;;;28.89;49.97;99096.09;10463779;28;20179;-83
2021/06/27 08:45:05;;;;;;;8.00;7.00;;;;;;;29.38;49.31;99092.22;10461373;28;20163;-83
2021/06/27 08:50:25;;;;;;;6.90;6.23;;;;;;;30.14;48.50;99105.75;10461948;28;20217;-83
2021/06/27 08:55:44;;;;;;;5.93;5.20;;;;;;;30.60;46.16;99105.53;10462166;28;20215;-82
2021/06/27 09:01:05;;;;;;;5.17;4.77;;;;;;;31.26;44.82;99091.22;10459466;28;20167;-82
2021/06/27 09:06:27;;;;;;;5.77;5.13;;;;;;;30.71;44.98;99094.03;10459734;28;20246;-82
2021/06/27 09:12:07;;;;;;;7.30;6.80;;;;;;;29.64;48.61;99096.13;10459285;28;20175;-81
2021/06/27 09:17:27;;;;;;;6.20;5.67;;;;;;;29.87;47.68;99091.78;10456244;28;20227;-83
2021/06/27 09:22:51;;;;;;;6.17;5.60;;;;;;;30.22;48.69;99095.34;10459259;28;20179;-82
2021/06/27 09:28:13;;;;;;;5.53;5.13;;;;;;;30.66;45.67;99077.06;10461211;28;20183;-83
2021/06/27 09:33:32;;;;;;;5.57;5.07;;;;;;;31.24;43.32;99076.03;10464802;28;20171;-85
2021/06/27 09:38:53;;;;;;;6.00;5.50;;;;;;;31.69;43.79;99074.81;10457462;28;20630;-84
2021/06/27 09:44:14;;;;;;;5.77;5.37;;;;;;;31.88;42.01;99072.66;10458651;28;20183;-83
2021/06/27 09:49:34;;;;;;;5.40;5.00;;;;;;;32.41;40.72;99063.66;10464700;28;20175;-84
2021/06/27 09:55:06;;;;;;;5.33;4.90;;;;;;;32.69;39.19;99063.88;10464733;28;20215;-83
2021/06/27 10:00:25;;;;;;;4.40;4.10;;;;;;;32.93;40.38;99063.63;10427510;28;20626;-83
2021/06/27 10:05:44;;;;;;;5.33;4.80;;;;;;;32.89;37.54;99060.31;10436388;28;20546;-83
2021/06/27 10:11:16;;;;;;;5.70;5.20;;;;;;;32.71;37.47;99072.66;10422162;28;20545;-85
2021/06/27 10:16:36;;;;;;;4.77;4.47;;;;;;;32.95;38.59;99061.75;10454651;28;20317;-83
2021/06/27 10:21:59;;;;;;;5.57;5.10;;;;;;;33.49;39.69;99065.44;10456496;28;20187;-83
2021/06/27 10:27:18;;;;;;;5.70;5.27;;;;;;;34.11;36.98;99060.50;10456726;28;20271;-83
2021/06/27 10:32:39;;;;;;;4.57;4.27;;;;;;;34.61;35.79;99057.03;10461024;28;20186;-84
2021/06/27 10:38:05;;;;;;;5.93;5.53;;;;;;;34.30;32.67;99070.34;10464448;28;20198;-83
2021/06/27 10:43:25;;;;;;;5.40;4.90;;;;;;;32.21;40.32;99057.84;10468510;28;20191;-82
2021/06/27 10:48:44;;;;;;;8.20;5.30;;;;;;;33.56;37.30;99053.31;10466890;28;20626;-83
2021/06/27 10:54:16;;;;;;;4.87;4.57;;;;;;;34.20;35.41;99049.34;10494730;28;20215;-82
2021/06/27 10:59:38;;;;;;;4.30;4.00;;;;;;;34.28;35.32;99035.09;10465474;28;20179;-84
2021/06/27 11:05:29;;;;;;;4.13;3.80;;;;;;;35.12;33.33;99025.06;10447767;28;20187;-83
2021/06/27 11:10:58;;;;;;;4.20;3.90;;;;;;;35.91;31.77;99022.69;10463733;28;20186;-84
2021/06/27 11:16:19;;;;;;;4.37;4.07;;;;;;;36.29;33.26;99017.69;10460752;28;20265;-83
2021/06/27 11:21:38;;;;;;;4.37;4.07;;;;;;;35.83;34.03;99010.47;10448453;28;20179;-84
2021/06/27 11:26:59;;;;;;;4.27;3.90;;;;;;;36.00;31.52;99010.69;10463306;28;20210;-83
2021/06/27 11:32:18;;;;;;;4.73;4.43;;;;;;;35.88;31.81;99004.56;10461073;28;20610;-82
2021/06/27 11:37:42;;;;;;;3.80;3.60;;;;;;;36.16;30.70;99006.44;10465348;28;20221;-83
2021/06/27 11:43:01;;;;;;;5.27;4.77;;;;;;;35.80;32.60;99003.03;10463964;28;20178;-83
2021/06/27 11:48:21;;;;;;;3.70;3.50;;;;;;;36.20;30.18;98999.00;10462488;28;20178;-83
2021/06/27 11:53:41;;;;;;;4.10;3.70;;;;;;;36.84;29.97;98990.56;10446434;28;20202;-83
2021/06/27 11:59:10;;;;;;;3.93;3.70;;;;;;;35.76;29.01;98988.34;10461174;28;20179;-84
2021/06/27 12:04:45;;;;;;;3.97;3.70;;;;;;;36.25;29.75;98992.28;10459306;28;20186;-84
2021/06/27 12:10:13;;;;;;;4.30;3.90;;;;;;;36.23;28.56;98971.28;10420528;28;20187;-84
2021/06/27 12:15:38;;;;;;;4.30;4.00;;;;;;;36.31;27.78;98983.50;10455654;28;20234;-84
2021/06/27 12:21:00;;;;;;;3.70;3.50;;;;;;;35.95;29.56;98988.69;10465793;28;20285;-83
2021/06/27 12:26:21;;;;;;;4.20;3.90;;;;;;;36.31;28.13;98984.25;10456260;28;20184;-83
2021/06/27 12:31:42;;;;;;;3.60;3.40;;;;;;;35.85;29.30;98976.31;10483636;28;20182;-84
2021/06/27 12:37:01;;;;;;;4.30;4.00;;;;;;;34.41;30.47;98981.47;10495418;28;20201;-83
2021/06/27 12:42:21;;;;;;;4.40;4.10;;;;;;;35.69;29.93;98974.78;10476456;28;20174;-84
2021/06/27 12:47:40;;;;;;;4.20;3.90;;;;;;;36.23;28.99;98965.56;10461846;28;20174;-83
2021/06/27 12:53:04;;;;;;;3.70;3.40;;;;;;;36.67;28.77;98963.91;10448338;28;20190;-86
2021/06/27 12:58:23;;;;;;;4.00;3.80;;;;;;;35.43;29.00;98963.69;10472244;28;20223;-83
2021/06/27 13:03:42;;;;;;;4.47;4.17;;;;;;;35.33;30.06;98974.16;10484300;28;20644;-83
2021/06/27 13:09:15;;;;;;;4.03;3.73;;;;;;;36.40;29.91;98968.56;10500667;28;20170;-83
2021/06/27 13:14:35;;;;;;;4.60;4.30;;;;;;;36.88;26.76;98957.31;10417914;28;20586;-83
2021/06/27 13:20:16;;;;;;;3.50;3.30;;;;;;;36.23;28.21;98945.50;10420147;28;20171;-83
2021/06/27 13:25:45;;;;;;;4.60;4.20;;;;;;;35.85;29.06;98948.41;10418740;28;20213;-84
2021/06/27 13:31:11;;;;;;;3.80;3.60;;;;;;;36.31;28.25;98931.91;10488603;28;20178;-83
2021/06/27 13:36:37;;;;;;;3.83;3.53;;;;;;;37.21;26.72;98938.75;10462471;28;20281;-84
2021/06/27 13:41:56;;;;;;;3.63;3.43;;;;;;;38.00;25.95;98926.97;10458994;28;20178;-83
2021/06/27 13:47:15;;;;;;;3.87;3.67;;;;;;;37.76;26.20;98925.66;10454659;28;20178;-84
2021/06/27 13:52:34;;;;;;;3.80;3.60;;;;;;;37.30;27.61;98929.50;10446185;28;20215;-84
2021/06/27 13:57:55;;;;;;;3.97;3.67;;;;;;;37.14;26.92;98925.22;10452045;28;20285;-84
2021/06/27 14:03:14;;;;;;;4.03;3.67;;;;;;;38.01;25.65;98925.63;10462185;28;20265;-85
2021/06/27 14:08:34;;;;;;;4.20;3.90;;;;;;;36.22;28.42;98916.09;10430654;28;20205;-84
2021/06/27 14:13:53;;;;;;;4.30;4.00;;;;;;;36.60;25.64;98913.06;10451143;28;20588;-84
2021/06/27 14:19:14;;;;;;;4.23;4.03;;;;;;;37.24;26.58;98911.72;10455859;28;20195;-84
2021/06/27 14:24:33;;;;;;;3.50;3.30;;;;;;;37.49;26.53;98900.25;10458433;28;20183;-83
2021/06/27 14:29:52;;;;;;;3.73;3.50;;;;;;;35.84;27.94;98897.47;10456894;28;20174;-83
2021/06/27 14:35:12;;;;;;;3.17;2.97;;;;;;;34.39;31.93;98894.78;10455317;28;20202;-83
2021/06/27 14:40:32;;;;;;;4.20;3.80;;;;;;;34.16;30.73;98886.13;10457739;28;20266;-83
2021/06/27 14:45:51;;;;;;;4.30;4.00;;;;;;;34.35;29.45;98883.75;10457712;28;20179;-83
2021/06/27 14:51:10;;;;;;;4.37;4.07;;;;;;;34.54;31.52;98881.31;10453525;28;20658;-83
2021/06/27 14:56:29;;;;;;;4.30;4.00;;;;;;;35.22;32.17;98870.78;10454854;28;20608;-83
2021/06/27 15:01:56;;;;;;;5.70;3.63;;;;;;;35.31;31.47;98875.94;10462413;28;20179;-84
2021/06/27 15:07:16;;;;;;;3.90;3.70;;;;;;;35.74;30.18;98879.34;10455170;28;20174;-83
2021/06/27 15:12:35;;;;;;;4.27;3.97;;;;;;;35.38;31.56;98875.16;10454654;28;20222;-84
2021/06/27 15:17:54;;;;;;;5.30;3.80;;;;;;;35.29;29.11;98878.59;10456448;28;20214;-85
2021/06/27 15:23:14;;;;;;;4.33;4.03;;;;;;;36.01;28.58;98871.84;10472803;28;20277;-84
2021/06/27 15:28:33;;;;;;;4.10;3.90;;;;;;;35.97;28.96;98874.34;10462184;28;20232;-84
2021/06/27 15:33:53;;;;;;;4.43;4.10;;;;;;;36.14;29.90;98868.75;10462269;28;20214;-84
2021/06/27 15:39:12;;;;;;;3.70;3.50;;;;;;;35.47;30.60;98869.63;10435295;28;20175;-83
2021/06/27 15:44:33;;;;;;;3.43;3.23;;;;;;;34.89;29.16;98856.84;10444971;28;20548;-85
2021/06/27 15:49:52;;;;;;;3.43;3.23;;;;;;;34.49;30.29;98859.41;10460305;28;20649;-83
2021/06/27 15:55:11;;;;;;;4.50;4.10;;;;;;;34.08;32.07;98844.59;10460198;28;20676;-84
2021/06/27 16:00:31;;;;;;;4.00;3.80;;;;;;;33.82;33.33;98841.97;10460188;28;20174;-84
2021/06/27 16:05:50;;;;;;;4.63;4.23;;;;;;;33.31;33.83;98851.69;10459949;28;20240;-83
2021/06/27 16:11:14;;;;;;;4.10;3.90;;;;;;;33.81;34.00;98846.16;10460099;28;20179;-84
2021/06/27 16:16:34;;;;;;;3.67;3.10;;;;;;;34.37;33.74;98843.16;10457269;28;20238;-84
2021/06/27 16:21:53;;;;;;;3.80;3.60;;;;;;;34.81;32.58;98838.91;10460472;28;20178;-83
2021/06/27 16:27:14;;;;;;;3.97;3.67;;;;;;;35.01;31.62;98841.59;10445653;28;20187;-86
2021/06/27 16:32:33;;;;;;;4.10;3.80;;;;;;;33.86;32.20;98833.78;10427451;28;20186;-84
2021/06/27 16:37:53;;;;;;;4.37;4.07;;;;;;;33.12;32.75;98839.00;10460911;28;20223;-83
2021/06/27 16:43:12;;;;;;;4.00;3.60;;;;;;;32.46;33.99;98832.06;10459977;28;20531;-82
2021/06/27 16:48:32;;;;;;;3.87;3.57;;;;;;;32.08;35.55;98827.25;10459831;28;20638;-82
2021/06/27 16:53:51;;;;;;;6.33;3.93;;;;;;;31.69;36.45;98828.06;10461676;28;20594;-83
2021/06/27 16:59:11;;;;;;;4.10;3.80;;;;;;;31.38;37.55;98819.59;10459117;28;20175;-83
2021/06/27 17:04:31;;;;;;;4.07;3.80;;;;;;;31.27;39.13;98813.38;10457822;28;20192;-83
2021/06/27 17:09:49;;;;;;;4.67;4.17;;;;;;;31.19;40.02;98818.19;10463388;28;20179;-82
2021/06/27 17:15:13;;;;;;;4.30;4.00;;;;;;;31.05;39.28;98822.31;10460963;28;20234;-84
2021/06/27 17:20:34;;;;;;;4.10;3.90;;;;;;;31.00;39.99;98823.16;10457322;28;20184;-83
2021/06/27 17:25:55;;;;;;;4.10;3.80;;;;;;;30.78;41.43;98812.94;10448026;28;20218;-85
2021/06/27 17:31:16;;;;;;;4.00;3.70;;;;;;;30.74;41.91;98828.78;10430710;28;20184;-83
2021/06/27 17:36:35;;;;;;;5.00;4.13;;;;;;;30.77;41.95;98821.25;10428358;28;20203;-82
2021/06/27 17:41:54;;;;;;;3.90;3.60;;;;;;;30.68;40.65;98828.13;10442981;28;20237;-83
2021/06/27 17:47:13;;;;;;;4.50;4.20;;;;;;;30.47;40.66;98830.00;10455837;28;20183;-83
2021/06/27 17:52:32;;;;;;;3.80;3.60;;;;;;;30.23;41.06;98826.47;10461275;28;20179;-84
2021/06/27 17:57:52;;;;;;;3.87;3.57;;;;;;;30.16;41.94;98827.84;10462213;28;20207;-82
2021/06/27 18:03:11;;;;;;;4.47;4.13;;;;;;;30.08;41.06;98834.69;10457235;28;20179;-84
2021/06/27 18:08:31;;;;;;;4.63;4.03;;;;;;;29.78;45.77;98833.28;10456361;28;20175;-85
2021/06/27 18:13:53;;;;;;;4.80;4.40;;;;;;;29.34;47.74;98833.75;10454271;28;20318;-86
2021/06/27 18:19:12;;;;;;;6.20;4.57;;;;;;;28.79;48.27;98828.66;10454000;28;20262;-84
2021/06/27 18:24:30;;;;;;;4.33;3.93;;;;;;;28.19;56.07;98843.19;10456160;28;20215;-82
2021/06/27 18:29:50;;;;;;;5.20;4.70;;;;;;;27.78;58.53;98844.47;10456064;28;20171;-84
2021/06/27 18:35:09;;;;;;;5.13;4.63;;;;;;;27.49;56.87;98840.19;10454302;28;20211;-84
2021/06/27 18:40:29;;;;;;;6.83;4.80;;;;;;;27.14;56.27;98853.34;10457497;28;20182;-86
2021/06/27 18:45:49;;;;;;;5.17;4.70;;;;;;;26.96;57.37;98853.88;10417363;28;20180;-87
2021/06/27 18:51:08;;;;;;;4.40;4.00;;;;;;;26.91;56.71;98849.00;10431651;28;20176;-86
2021/06/27 18:56:27;;;;;;;4.10;3.80;;;;;;;26.94;58.12;98850.78;10463084;28;20214;-87
2021/06/27 19:01:45;;;;;;;5.13;4.73;;;;;;;26.82;60.89;98837.97;10462449;28;20191;-90
2021/06/27 19:07:05;;;;;;;5.20;4.83;;;;;;;26.53;62.68;98836.94;10462504;28;20258;-84
2021/06/27 19:12:24;;;;;;;4.77;4.37;;;;;;;26.35;63.03;98831.75;10461762;28;20195;-83
2021/06/27 19:17:44;;;;;;;4.73;4.33;;;;;;;26.20;64.97;98831.25;10460100;28;20297;-84
2021/06/27 19:23:04;;;;;;;4.70;4.30;;;;;;;25.72;65.99;98839.03;10461708;28;20203;-86
2021/06/27 19:28:24;;;;;;;4.80;4.40;;;;;;;25.50;67.00;98838.16;10461512;28;20274;-89
2021/06/27 19:33:45;;;;;;;4.50;4.10;;;;;;;25.37;67.78;98827.34;10460336;28;20180;-85
2021/06/27 19:39:05;;;;;;;4.77;4.43;;;;;;;25.22;68.83;98823.94;10461902;28;20175;-86
2021/06/27 19:44:24;;;;;;;4.70;4.30;;;;;;;25.13;70.07;98829.00;10460869;28;20175;-84
2021/06/27 19:49:43;;;;;;;6.00;5.40;;;;;;;24.96;72.91;98827.34;10460781;28;20254;-82
2021/06/27 19:55:05;;;;;;;5.57;5.10;;;;;;;24.77;74.42;98826.94;10460294;28;20206;-85
2021/06/27 20:00:24;;;;;;;6.97;5.67;;;;;;;24.75;75.27;98849.19;10460200;28;20180;-83
2021/06/27 20:05:45;;;;;;;5.87;5.33;;;;;;;24.76;75.55;98859.16;10458349;28;20188;-86
2021/06/27 20:11:05;;;;;;;5.57;5.03;;;;;;;24.74;75.27;98867.34;10459711;28;20199;-84
2021/06/27 20:16:24;;;;;;;5.90;5.40;;;;;;;24.52;75.33;98863.56;10458145;28;20306;-83
2021/06/27 20:21:43;;;;;;;4.97;4.57;;;;;;;24.36;76.50;98875.41;10460675;28;20183;-82
2021/06/27 20:27:03;;;;;;;6.90;5.57;;;;;;;24.30;76.27;98883.03;10460634;28;20183;-85
2021/06/27 20:32:22;;;;;;;4.77;4.37;;;;;;;24.23;74.56;98897.53;10458231;28;20534;-84
2021/06/27 20:37:41;;;;;;;5.07;4.57;;;;;;;24.02;75.43;98896.00;10459027;28;20685;-84
2021/06/27 20:43:01;;;;;;;4.47;4.07;;;;;;;24.08;74.09;98896.81;10459681;28;20649;-84
2021/06/27 20:48:20;;;;;;;5.57;5.07;;;;;;;24.22;73.04;98901.59;10457642;28;20183;-85
2021/06/27 20:53:39;;;;;;;4.70;4.30;;;;;;;24.25;73.24;98906.22;10458455;28;20176;-84
2021/06/27 20:58:59;;;;;;;5.57;5.07;;;;;;;24.00;74.92;98904.13;10458088;28;20547;-83
2021/06/27 21:04:19;;;;;;;5.47;4.87;;;;;;;23.88;77.17;98905.28;10417021;28;20638;-84
2021/06/27 21:09:41;;;;;;;6.20;5.60;;;;;;;23.77;80.02;98904.38;10417558;28;20630;-84
2021/06/27 21:15:00;;;;;;;6.67;6.00;;;;;;;23.75;79.33;98898.47;10430074;28;20235;-85
2021/06/27 21:20:19;;;;;;;5.37;4.90;;;;;;;23.82;80.67;98907.25;10416963;28;20181;-87
2021/06/27 21:25:38;;;;;;;5.30;4.80;;;;;;;23.56;82.42;98897.97;10430588;28;20172;-88
2021/06/27 21:30:58;;;;;;;5.97;5.00;;;;;;;23.38;82.18;98894.66;10456530;28;20176;-88
2021/06/27 21:36:17;;;;;;;5.30;4.53;;;;;;;23.42;81.37;98900.81;10461401;28;20771;-87
2021/06/27 21:41:36;;;;;;;4.70;4.27;;;;;;;23.38;82.41;98895.41;10457796;28;20180;-87
2021/06/27 21:46:55;;;;;;;5.60;5.10;;;;;;;23.26;83.35;98890.13;10457100;28;20211;-85
2021/06/27 21:52:14;;;;;;;4.40;4.10;;;;;;;23.17;87.22;98886.69;10457391;28;20179;-85
2021/06/27 21:57:33;;;;;;;5.97;5.10;;;;;;;23.02;89.13;98885.91;10457638;28;20602;-84
2021/06/27 22:02:56;;;;;;;5.40;4.90;;;;;;;22.85;94.90;98884.88;10452453;28;20187;-85
2021/06/27 22:08:15;;;;;;;11.23;4.70;;;;;;;22.66;99.93;98887.09;10455416;28;20179;-84
2021/06/27 22:13:33;;;;;;;6.30;5.10;;;;;;;22.56;99.87;98882.09;10455017;28;20219;-84
2021/06/27 22:18:52;;;;;;;6.93;6.23;;;;;;;22.48;100.00;98886.53;10454001;28;20179;-84
2021/06/27 22:24:11;;;;;;;6.43;5.30;;;;;;;22.27;100.00;98892.47;10455154;28;20188;-86
2021/06/27 22:29:30;;;;;;;6.20;5.60;;;;;;;21.96;100.00;98892.94;10455509;28;20171;-84
2021/06/27 22:34:49;;;;;;;6.13;5.57;;;;;;;21.80;100.00;98892.59;10454761;28;20215;-84
2021/06/27 22:40:09;;;;;;;5.13;4.63;;;;;;;21.65;100.00;98899.41;10455649;28;20270;-85
2021/06/27 22:45:28;;;;;;;5.33;4.77;;;;;;;21.58;100.00;98902.56;10455421;28;20179;-84
2021/06/27 22:50:47;;;;;;;4.40;4.10;;;;;;;21.47;100.00;98913.50;10453838;28;20649;-87
2021/06/27 22:56:13;;;;;;;5.73;4.37;;;;;;;21.38;100.00;98917.13;10454820;28;20211;-89
2021/06/27 23:01:32;;;;;;;6.67;4.70;;;;;;;21.26;100.00;98915.34;10453256;28;20614;-84
2021/06/27 23:06:52;;;;;;;5.50;5.00;;;;;;;21.10;100.00;98909.34;10455366;28;20183;-84
2021/06/27 23:12:11;;;;;;;4.80;4.40;;;;;;;20.99;100.00;98895.13;10455631;28;20195;-84
2021/06/27 23:17:30;;;;;;;5.20;4.70;;;;;;;20.87;100.00;98910.06;10453442;28;20220;-84
2021/06/27 23:22:49;;;;;;;7.03;5.07;;;;;;;20.78;100.00;98917.72;10454182;28;20179;-84
2021/06/27 23:28:08;;;;;;;5.20;4.73;;;;;;;20.84;100.00;98919.38;10453780;28;20246;-83
2021/06/27 23:33:27;;;;;;;5.50;5.00;;;;;;;20.70;100.00;98908.09;10452292;28;20710;-83
2021/06/27 23:38:46;;;;;;;5.57;5.07;;;;;;;20.56;100.00;98889.16;10456587;28;20211;-84
2021/06/27 23:44:06;;;;;;;5.60;5.00;;;;;;;20.54;100.00;98892.44;10460978;28;20179;-85
2021/06/27 23:49:25;;;;;;;6.57;5.00;;;;;;;20.58;100.00;98895.06;10459999;28;20580;-83
2021/06/27 23:54:44;;;;;;;5.63;5.13;;;;;;;20.64;100.00;98902.34;10461291;28;20207;-84
